Aviation Digital Data Service (ADDS)

Output produced by TAFs form (2356 UTC 18 July 2018)
found at http://www.aviationweather.gov/adds/tafs/
 
METAR text: RJSY 182300Z VRB02KT 5000 BR FEW007 SCT030 BKN/// 25/22 Q1012
Conditions at: RJSY (SHONAI , JP) observed 2300 UTC 18 July 2018
Temperature: 25.0°C (77°F)
Dewpoint: 22.0°C (72°F) [RH = 83%]
Pressure (altimeter): 29.88 inches Hg (1012.0 mb)
Winds: variable direction winds at 2 MPH (2 knots; 1.0 m/s)
Visibility: 3 miles (5 km)
Ceiling: at least 12,000 feet AGL
Clouds: few clouds at 700 feet AGL
scattered clouds at 3000 feet AGL
Weather: BR  (mist)